createdAt,value
2019-02-15T00:01:20.806Z,8.53
2019-02-15T00:06:24.528Z,9.37
2019-02-15T00:11:28.904Z,8.97
2019-02-15T00:16:32.619Z,9.50
2019-02-15T00:21:42.700Z,9.10
2019-02-15T00:26:46.477Z,8.43
2019-02-15T00:31:50.189Z,8.80
2019-02-15T00:36:53.860Z,9.23
2019-02-15T00:41:57.619Z,9.07
2019-02-15T00:47:09.445Z,8.70
2019-02-15T00:52:19.037Z,7.97
2019-02-15T00:57:45.263Z,8.47
2019-02-15T01:03:08.987Z,8.57
2019-02-15T01:08:23.174Z,7.70
2019-02-15T01:13:31.138Z,8.20
2019-02-15T01:18:32.780Z,8.50
2019-02-15T01:23:36.485Z,8.90
2019-02-15T01:28:47.023Z,8.37
2019-02-15T01:34:25.279Z,9.40
2019-02-15T01:39:44.129Z,8.93
2019-02-15T01:44:52.499Z,8.17
2019-02-15T01:49:56.200Z,7.90
2019-02-15T01:54:59.908Z,8.80
2019-02-15T02:00:04.138Z,8.47
2019-02-15T02:05:08.097Z,8.83
2019-02-15T02:10:11.899Z,8.77
2019-02-15T02:15:15.572Z,9.10
2019-02-15T02:20:19.296Z,9.07
2019-02-15T02:25:23.404Z,9.60
2019-02-15T02:30:27.199Z,8.70
2019-02-15T02:35:31.563Z,9.33
2019-02-15T02:40:35.285Z,8.37
2019-02-15T02:45:39.103Z,9.43
2019-02-15T02:50:43.119Z,8.70
2019-02-15T02:55:46.879Z,9.60
2019-02-15T03:00:50.580Z,8.83
2019-02-15T03:05:54.536Z,9.43
2019-02-15T03:10:58.775Z,9.37
2019-02-15T03:16:02.479Z,8.73
2019-02-15T03:21:06.185Z,9.13
2019-02-15T03:26:09.917Z,8.50
2019-02-15T03:31:13.657Z,9.20
2019-02-15T03:36:27.233Z,10.20
2019-02-15T03:41:33.580Z,9.70
2019-02-15T03:46:37.307Z,9.40
2019-02-15T03:51:41.281Z,8.80
2019-02-15T03:56:45.022Z,8.63
2019-02-15T04:01:48.881Z,8.50
2019-02-15T04:06:52.805Z,8.40
2019-02-15T04:11:56.534Z,8.87
2019-02-15T04:17:00.245Z,8.50
2019-02-15T04:22:04.322Z,9.17
2019-02-15T04:27:07.996Z,9.13
2019-02-15T04:32:11.687Z,10.50
2019-02-15T04:37:15.719Z,10.77
2019-02-15T04:42:19.406Z,12.80
2019-02-15T04:47:23.084Z,9.83
2019-02-15T04:52:27.356Z,9.20
2019-02-15T04:57:31.660Z,9.77
2019-02-15T05:02:35.402Z,12.07
2019-02-15T05:07:39.169Z,10.80
2019-02-15T05:12:43.136Z,9.00
2019-02-15T05:17:46.825Z,9.60
2019-02-15T05:22:50.577Z,8.90
2019-02-15T05:27:54.257Z,10.10
2019-02-15T05:32:57.947Z,8.83
2019-02-15T05:38:03.025Z,9.43
2019-02-15T05:43:06.758Z,9.30
2019-02-15T05:48:10.496Z,9.20
2019-02-15T05:53:14.277Z,11.23
2019-02-15T05:58:18.301Z,10.57
2019-02-15T06:03:22.049Z,9.33
2019-02-15T06:08:25.772Z,9.90
2019-02-15T06:13:29.743Z,9.40
2019-02-15T06:18:33.451Z,9.10
2019-02-15T06:23:37.244Z,9.80
2019-02-15T06:28:41.030Z,10.23
2019-02-15T06:33:44.734Z,9.73
2019-02-15T06:38:48.829Z,9.20
2019-02-15T06:43:52.809Z,10.03
2019-02-15T06:48:56.562Z,9.07
2019-02-15T06:54:00.276Z,9.70
2019-02-15T06:59:29.200Z,9.57
2019-02-15T07:04:49.198Z,8.70
2019-02-15T07:09:53.051Z,8.87
2019-02-15T07:14:56.822Z,9.40
2019-02-15T07:20:00.563Z,9.30
2019-02-15T07:25:04.386Z,8.40
2019-02-15T07:30:10.274Z,7.43
2019-02-15T07:35:13.978Z,6.43
2019-02-15T07:40:17.632Z,5.93
2019-02-15T07:45:22.734Z,6.30
2019-02-15T07:50:26.528Z,5.90
2019-02-15T07:55:30.305Z,6.03
2019-02-15T08:00:34.023Z,6.20
2019-02-15T08:05:37.978Z,6.00
2019-02-15T08:10:41.762Z,6.60
2019-02-15T08:15:51.521Z,6.57
2019-02-15T08:20:51.568Z,7.00
2019-02-15T08:25:55.269Z,5.93
2019-02-15T08:30:58.975Z,6.77
2019-02-15T08:36:02.650Z,7.23
2019-02-15T08:41:21.038Z,7.13
2019-02-15T08:46:27.268Z,6.37
2019-02-15T08:52:04.710Z,5.80
2019-02-15T08:57:21.751Z,5.97
2019-02-15T09:02:38.629Z,5.95
2019-02-15T09:07:42.445Z,6.60
2019-02-15T09:12:46.150Z,5.75
2019-02-15T09:17:49.870Z,6.37
2019-02-15T09:22:53.612Z,6.20
2019-02-15T09:28:16.820Z,5.72
2019-02-15T09:33:20.551Z,6.25
2019-02-15T09:38:24.897Z,5.78
2019-02-15T09:43:28.625Z,5.70
2019-02-15T09:48:32.708Z,5.90
2019-02-15T09:53:36.430Z,6.00
2019-02-15T09:58:40.153Z,5.20
2019-02-15T10:03:43.897Z,5.58
2019-02-15T10:08:50.627Z,5.35
2019-02-15T10:13:56.861Z,6.00
2019-02-15T10:19:02.945Z,5.60
2019-02-15T10:24:08.238Z,5.42
2019-02-15T10:29:12.995Z,5.80
2019-02-15T10:34:18.149Z,5.50
2019-02-15T10:39:23.898Z,5.12
2019-02-15T10:44:29.929Z,4.87
2019-02-15T10:49:34.584Z,5.10
2019-02-15T10:54:40.491Z,5.45
2019-02-15T10:59:46.989Z,4.72
2019-02-15T11:04:53.401Z,5.08
2019-02-15T11:10:16.132Z,4.72
2019-02-15T11:35:19.367Z,4.58
2019-02-15T12:17:11.461Z,3.27
2019-02-15T12:23:47.471Z,3.62
2019-02-15T12:36:01.753Z,3.20
2019-02-15T12:41:03.775Z,3.10
2019-02-15T12:52:48.804Z,2.67
2019-02-15T13:09:55.708Z,2.20
2019-02-15T13:14:59.625Z,2.33
2019-02-15T13:20:03.443Z,2.40
2019-02-15T13:25:07.742Z,1.80
2019-02-15T13:30:11.891Z,2.20
2019-02-15T13:35:15.999Z,2.00
2019-02-15T13:40:19.699Z,1.90
2019-02-15T13:46:17.667Z,1.62
2019-02-15T13:52:30.094Z,1.60
2019-02-15T13:57:33.823Z,1.75
2019-02-15T14:02:37.529Z,1.00
2019-02-15T14:07:41.265Z,1.27
2019-02-15T14:12:45.091Z,1.00
2019-02-15T14:17:49.147Z,1.00
2019-02-15T14:22:52.847Z,0.90
2019-02-15T14:27:56.598Z,1.00
2019-02-15T14:33:00.699Z,0.98
2019-02-15T14:38:04.525Z,0.80
2019-02-15T14:43:08.533Z,0.68
2019-02-15T14:48:12.305Z,0.70
2019-02-15T14:53:16.004Z,0.80
2019-02-15T14:58:19.714Z,0.68
2019-02-15T15:03:23.801Z,0.90
2019-02-15T15:08:27.697Z,0.88
2019-02-15T15:13:31.387Z,0.82
2019-02-15T15:18:35.200Z,0.80
2019-02-15T15:23:38.938Z,0.80
2019-02-15T15:28:42.652Z,0.95
2019-02-15T15:33:46.591Z,0.70
2019-02-15T15:38:50.283Z,1.20
2019-02-15T15:43:53.948Z,1.00
2019-02-15T15:48:57.681Z,1.37
2019-02-15T15:54:01.373Z,1.37
2019-02-15T15:59:05.566Z,1.30
2019-02-15T16:04:10.351Z,1.73
2019-02-15T16:09:14.094Z,1.30
2019-02-15T16:14:17.866Z,1.30
2019-02-15T16:19:21.554Z,1.30
2019-02-15T16:24:25.510Z,1.50
2019-02-15T16:29:29.259Z,1.87
2019-02-15T16:34:32.994Z,2.37
2019-02-15T16:39:36.728Z,3.77
2019-02-15T16:44:40.434Z,4.00
2019-02-15T16:49:44.154Z,4.27
2019-02-15T16:54:48.036Z,8.30
2019-02-15T16:59:53.001Z,3.90
2019-02-15T17:04:56.969Z,4.70
2019-02-15T17:10:00.728Z,4.40
2019-02-15T17:15:04.696Z,6.40
2019-02-15T17:20:09.069Z,7.87
2019-02-15T17:25:12.993Z,11.83
2019-02-15T17:30:16.670Z,10.37
2019-02-15T17:35:20.953Z,9.60
2019-02-15T17:40:24.656Z,12.97
2019-02-15T17:45:28.848Z,19.83
2019-02-15T17:50:32.616Z,36.03
2019-02-15T17:55:36.318Z,12.63
2019-02-15T18:00:40.021Z,8.50
2019-02-15T18:05:43.729Z,8.13
2019-02-15T18:10:47.437Z,8.03
2019-02-15T18:15:51.137Z,11.53
2019-02-15T18:20:54.820Z,11.70
2019-02-15T18:25:58.906Z,14.53
2019-02-15T18:31:02.925Z,14.27
2019-02-15T18:36:06.699Z,13.57
2019-02-15T18:41:13.539Z,10.60
2019-02-15T18:46:15.999Z,9.93
2019-02-15T18:51:19.783Z,10.60
2019-02-15T18:56:23.498Z,10.40
2019-02-15T19:01:27.594Z,9.80
2019-02-15T19:06:31.564Z,22.07
2019-02-15T19:11:35.278Z,18.47
2019-02-15T19:16:39.309Z,12.87
2019-02-15T19:28:19.948Z,7.00
2019-02-15T19:34:09.133Z,6.97
2019-02-15T19:39:48.802Z,6.83
2019-02-15T19:44:53.282Z,5.73
2019-02-15T19:49:56.978Z,7.17
2019-02-15T19:55:00.725Z,10.43
2019-02-15T20:00:05.525Z,9.33
2019-02-15T20:05:09.313Z,8.73
2019-02-15T20:10:14.906Z,8.10
2019-02-15T20:15:18.951Z,8.60
2019-02-15T20:20:22.634Z,8.40
2019-02-15T20:25:26.701Z,8.47
2019-02-15T20:30:30.565Z,12.17
2019-02-15T20:35:34.245Z,13.23
2019-02-15T20:40:37.953Z,9.50
2019-02-15T20:45:41.731Z,8.37
2019-02-15T20:50:45.482Z,10.10
2019-02-15T20:55:49.254Z,9.83
2019-02-15T21:00:53.308Z,10.03
2019-02-15T21:05:57.045Z,9.13
2019-02-15T21:11:00.884Z,7.90
2019-02-15T21:16:04.593Z,8.53
2019-02-15T21:21:08.296Z,8.43
2019-02-15T21:26:11.990Z,8.47
2019-02-15T21:31:15.778Z,8.30
2019-02-15T21:36:19.837Z,8.23
2019-02-15T21:41:23.631Z,8.73
2019-02-15T21:46:27.623Z,13.60
2019-02-15T21:51:31.544Z,8.17
2019-02-15T21:56:35.256Z,9.07
2019-02-15T22:01:39.119Z,8.37
2019-02-15T22:06:42.932Z,7.87
2019-02-15T22:11:47.002Z,8.63
2019-02-15T22:16:50.699Z,6.90
2019-02-15T22:21:55.036Z,8.50
2019-02-15T22:26:58.723Z,8.30
2019-02-15T22:32:02.501Z,9.17
2019-02-15T22:37:06.535Z,8.33
2019-02-15T22:42:10.504Z,8.50
2019-02-15T22:47:14.204Z,8.80
2019-02-15T22:52:17.916Z,8.90
2019-02-15T22:57:21.636Z,9.17
2019-02-15T23:02:25.425Z,8.37
2019-02-15T23:07:29.128Z,9.30
2019-02-15T23:12:33.089Z,10.30
2019-02-15T23:17:36.751Z,9.53
2019-02-15T23:22:40.436Z,9.90
2019-02-15T23:27:44.118Z,8.83
2019-02-15T23:32:48.036Z,9.20
2019-02-15T23:37:52.087Z,8.60
2019-02-15T23:42:55.809Z,8.83
2019-02-15T23:47:59.471Z,8.70
2019-02-15T23:53:03.475Z,8.67
2019-02-15T23:58:07.139Z,8.50
